Time;durP1;ratioP1;P1;durP2;ratioP2;P2;SDS_P1;SDS_P2;PMS_P1;PMS_P2;Temp;Humidity;BMP_temperature;BMP_pressure;BME280_temperature;BME280_humidity;BME280_pressure;Samples;Min_cycle;Max_cycle;Signal;HPM_P1;HPM_P2
2023/06/20 00:01:26;;;;;;;8.23;5.35;;;;;;;;;;5023926;28;20480;-71
2023/06/20 00:03:51;;;;;;;8.70;5.88;;;;;;;;;;5022780;28;20403;-71
2023/06/20 00:06:17;;;;;;;7.88;5.25;;;;;;;;;;5024046;28;20038;-71
2023/06/20 00:08:42;;;;;;;8.32;5.47;;;;;;;;;;5018781;28;20544;-71
2023/06/20 00:11:07;;;;;;;7.15;4.82;;;;;;;;;;5014416;28;20439;-71
2023/06/20 00:13:34;;;;;;;9.60;6.13;;;;;;;;;;5022275;28;20430;-71
2023/06/20 00:16:00;;;;;;;9.10;6.20;;;;;;;;;;5024431;28;20516;-71
2023/06/20 00:18:26;;;;;;;7.93;5.32;;;;;;;;;;5020131;28;20127;-71
2023/06/20 00:20:54;;;;;;;7.47;5.00;;;;;;;;;;5018485;28;20415;-71
2023/06/20 00:23:21;;;;;;;8.98;5.55;;;;;;;;;;5026996;28;20511;-71
2023/06/20 00:25:47;;;;;;;8.18;5.00;;;;;;;;;;5027381;28;20041;-71
2023/06/20 00:28:16;;;;;;;10.38;4.95;;;;;;;;;;5027436;28;20018;-71
2023/06/20 00:30:41;;;;;;;9.93;5.47;;;;;;;;;;5027310;28;20501;-71
2023/06/20 00:33:06;;;;;;;6.90;5.30;;;;;;;;;;5026502;28;20128;-71
2023/06/20 00:35:32;;;;;;;10.02;5.28;;;;;;;;;;5027209;28;20041;-71
2023/06/20 00:37:57;;;;;;;8.45;5.32;;;;;;;;;;5026756;28;20052;-71
2023/06/20 00:40:22;;;;;;;7.28;5.53;;;;;;;;;;5026989;28;20095;-71
2023/06/20 00:42:48;;;;;;;7.35;5.55;;;;;;;;;;5027811;28;20517;-71
2023/06/20 00:45:33;;;;;;;9.07;5.75;;;;;;;;;;5026787;28;20041;-71
2023/06/20 00:48:02;;;;;;;7.35;5.70;;;;;;;;;;5014441;28;20038;-71
2023/06/20 00:50:29;;;;;;;8.38;5.95;;;;;;;;;;5024469;28;20132;-71
2023/06/20 00:53:04;;;;;;;9.10;5.65;;;;;;;;;;5027004;28;20538;-71
2023/06/20 00:55:31;;;;;;;9.02;6.07;;;;;;;;;;5026900;28;20048;-71
2023/06/20 00:57:58;;;;;;;8.13;5.28;;;;;;;;;;5027724;28;20033;-71
2023/06/20 01:00:24;;;;;;;8.02;5.15;;;;;;;;;;5027683;28;20059;-71
2023/06/20 01:02:53;;;;;;;7.63;5.28;;;;;;;;;;5030090;28;20125;-71
2023/06/20 01:05:27;;;;;;;8.02;5.60;;;;;;;;;;5036442;28;20048;-71
2023/06/20 01:07:59;;;;;;;9.02;5.63;;;;;;;;;;5032506;28;20029;-71
2023/06/20 01:10:33;;;;;;;11.13;5.75;;;;;;;;;;5028217;28;20025;-71
2023/06/20 01:13:07;;;;;;;10.15;5.90;;;;;;;;;;5025663;28;20044;-71
2023/06/20 01:15:48;;;;;;;7.95;5.72;;;;;;;;;;5026581;28;20049;-71
2023/06/20 01:18:25;;;;;;;9.20;5.88;;;;;;;;;;5015014;28;20458;-71
2023/06/20 01:21:09;;;;;;;11.98;6.22;;;;;;;;;;5024159;28;20061;-71
2023/06/20 01:23:43;;;;;;;9.27;5.75;;;;;;;;;;5024528;28;20513;-71
2023/06/20 01:26:17;;;;;;;10.45;6.13;;;;;;;;;;5025259;28;20148;-71
2023/06/20 01:28:50;;;;;;;9.05;5.90;;;;;;;;;;5012236;28;20045;-71
2023/06/20 01:31:17;;;;;;;;;;;;;;;;;;5025939;28;20029;-71
2023/06/20 01:34:08;;;;;;;10.15;5.68;;;;;;;;;;5020307;28;19909;-71
2023/06/20 01:36:42;;;;;;;10.45;5.95;;;;;;;;;;5025765;28;20044;-71
2023/06/20 01:39:11;;;;;;;10.18;5.90;;;;;;;;;;5025308;28;20061;-71
2023/06/20 01:41:39;;;;;;;14.05;6.10;;;;;;;;;;5026172;28;20103;-71
2023/06/20 01:44:07;;;;;;;10.05;6.38;;;;;;;;;;5025819;28;20033;-71
2023/06/20 01:46:33;;;;;;;9.00;6.25;;;;;;;;;;5025722;28;20602;-71
2023/06/20 01:49:00;;;;;;;11.90;6.65;;;;;;;;;;5024241;28;20037;-71
2023/06/20 01:51:27;;;;;;;8.98;5.97;;;;;;;;;;5025894;28;20128;-71
2023/06/20 01:53:55;;;;;;;10.85;6.22;;;;;;;;;;5025117;28;20527;-71
2023/06/20 01:56:21;;;;;;;11.55;6.40;;;;;;;;;;5025211;28;20396;-71
2023/06/20 01:58:48;;;;;;;9.52;6.10;;;;;;;;;;5023900;28;20033;-71
2023/06/20 02:01:15;;;;;;;10.23;6.80;;;;;;;;;;5025614;28;20116;-71
2023/06/20 02:03:41;;;;;;;8.40;5.60;;;;;;;;;;5025385;28;20152;-71
2023/06/20 02:06:08;;;;;;;10.40;6.95;;;;;;;;;;5025347;28;20052;-71
2023/06/20 02:08:34;;;;;;;11.23;7.10;;;;;;;;;;5023354;28;20593;-71
2023/06/20 02:11:01;;;;;;;11.80;6.80;;;;;;;;;;5011897;28;20507;-71
2023/06/20 02:13:26;;;;;;;9.10;6.50;;;;;;;;;;5022236;28;20036;-71
2023/06/20 02:15:53;;;;;;;10.73;6.82;;;;;;;;;;5020905;28;20033;-71
2023/06/20 02:18:19;;;;;;;11.30;6.57;;;;;;;;;;5025755;28;20044;-71
2023/06/20 02:20:49;;;;;;;10.48;6.55;;;;;;;;;;5031066;28;20037;-71
2023/06/20 02:23:21;;;;;;;8.90;6.50;;;;;;;;;;5025101;28;20033;-71
2023/06/20 02:25:46;;;;;;;14.25;7.28;;;;;;;;;;5025990;28;20040;-71
2023/06/20 02:28:14;;;;;;;11.80;6.18;;;;;;;;;;5022945;28;20446;-71
2023/06/20 02:30:39;;;;;;;8.75;6.05;;;;;;;;;;5030014;28;20042;-71
2023/06/20 02:33:07;;;;;;;11.55;7.00;;;;;;;;;;5036212;28;20042;-71
2023/06/20 02:35:33;;;;;;;12.98;6.70;;;;;;;;;;5026977;28;20045;-71
2023/06/20 02:38:00;;;;;;;11.95;6.47;;;;;;;;;;5033532;28;20033;-71
2023/06/20 02:40:26;;;;;;;13.02;6.70;;;;;;;;;;5026402;28;20060;-71
2023/06/20 02:42:51;;;;;;;9.35;6.45;;;;;;;;;;5025352;28;20064;-71
2023/06/20 02:45:18;;;;;;;10.40;6.10;;;;;;;;;;5021577;28;20537;-71
2023/06/20 02:48:10;;;;;;;13.93;6.43;;;;;;;;;;5024713;28;20037;-71
2023/06/20 02:50:40;;;;;;;10.25;6.63;;;;;;;;;;5014197;28;20041;-71
2023/06/20 02:53:21;;;;;;;10.27;6.28;;;;;;;;;;5024668;28;20037;-71
2023/06/20 02:55:54;;;;;;;9.32;6.15;;;;;;;;;;5026451;28;20080;-71
2023/06/20 02:58:21;;;;;;;12.20;7.03;;;;;;;;;;5011543;28;20495;-71
2023/06/20 03:00:49;;;;;;;11.90;6.22;;;;;;;;;;5024497;28;20574;-71
2023/06/20 03:03:20;;;;;;;13.30;6.32;;;;;;;;;;5024109;28;20095;-71
2023/06/20 03:05:45;;;;;;;13.32;6.95;;;;;;;;;;5024241;28;20049;-71
2023/06/20 03:08:13;;;;;;;10.77;6.25;;;;;;;;;;5024226;28;20044;-71
2023/06/20 03:10:41;;;;;;;9.70;6.47;;;;;;;;;;5023963;28;20902;-71
2023/06/20 03:13:06;;;;;;;12.75;6.43;;;;;;;;;;5032220;28;20108;-71
2023/06/20 03:15:32;;;;;;;10.90;6.32;;;;;;;;;;5027327;28;20463;-71
2023/06/20 03:18:01;;;;;;;9.73;6.25;;;;;;;;;;5011278;28;20519;-71
2023/06/20 03:20:28;;;;;;;9.52;5.93;;;;;;;;;;5012442;28;20033;-71
2023/06/20 03:22:53;;;;;;;10.75;6.25;;;;;;;;;;5027459;28;20883;-71
2023/06/20 03:25:19;;;;;;;10.77;6.57;;;;;;;;;;5015275;28;20131;-70
2023/06/20 03:27:44;;;;;;;11.63;6.25;;;;;;;;;;5024677;28;20029;-71
2023/06/20 03:30:10;;;;;;;9.18;5.70;;;;;;;;;;5024282;28;20041;-71
2023/06/20 03:32:35;;;;;;;11.55;6.20;;;;;;;;;;5017476;28;20418;-71
2023/06/20 03:35:00;;;;;;;12.45;6.10;;;;;;;;;;5020981;28;20037;-71
2023/06/20 03:37:26;;;;;;;11.38;6.28;;;;;;;;;;5024113;28;20029;-71
2023/06/20 03:39:51;;;;;;;10.40;6.30;;;;;;;;;;5024188;28;20019;-71
2023/06/20 03:42:16;;;;;;;12.48;6.05;;;;;;;;;;5024142;28;20045;-71
2023/06/20 03:44:41;;;;;;;8.82;5.95;;;;;;;;;;5024066;28;20434;-71
2023/06/20 03:47:07;;;;;;;11.38;6.18;;;;;;;;;;5024123;28;20407;-71
2023/06/20 03:49:32;;;;;;;11.00;6.03;;;;;;;;;;5023916;28;20409;-71
2023/06/20 03:51:57;;;;;;;10.02;5.95;;;;;;;;;;5026235;28;20460;-71
2023/06/20 03:54:23;;;;;;;10.48;6.10;;;;;;;;;;5028573;28;20060;-71
2023/06/20 03:56:49;;;;;;;11.20;6.45;;;;;;;;;;5030887;28;20406;-71
2023/06/20 03:59:14;;;;;;;8.15;5.60;;;;;;;;;;5036991;28;20037;-71
2023/06/20 04:01:40;;;;;;;10.30;5.80;;;;;;;;;;5036101;28;20406;-71
2023/06/20 04:04:05;;;;;;;9.05;6.25;;;;;;;;;;5029267;28;20152;-71
2023/06/20 04:06:31;;;;;;;8.40;5.53;;;;;;;;;;5027893;28;20041;-71
2023/06/20 04:08:57;;;;;;;13.60;6.03;;;;;;;;;;5027846;28;20617;-71
2023/06/20 04:11:23;;;;;;;9.55;5.95;;;;;;;;;;5027901;28;20672;-71
2023/06/20 04:13:48;;;;;;;8.77;5.75;;;;;;;;;;5027026;28;20109;-71
2023/06/20 04:16:14;;;;;;;10.90;5.88;;;;;;;;;;5028048;28;20025;-71
2023/06/20 04:18:40;;;;;;;8.48;6.07;;;;;;;;;;5027716;28;20073;-71
2023/06/20 04:21:06;;;;;;;10.27;6.40;;;;;;;;;;5026669;28;20140;-71
2023/06/20 04:23:31;;;;;;;9.23;5.80;;;;;;;;;;5027674;28;20171;-71
2023/06/20 04:25:56;;;;;;;10.40;6.68;;;;;;;;;;5026906;28;20052;-71
2023/06/20 04:28:22;;;;;;;10.73;5.40;;;;;;;;;;5027429;28;20034;-71
2023/06/20 04:30:48;;;;;;;12.98;6.13;;;;;;;;;;5026864;28;20040;-71
2023/06/20 04:33:14;;;;;;;8.85;6.00;;;;;;;;;;5022464;28;20037;-71
2023/06/20 04:35:40;;;;;;;10.60;5.88;;;;;;;;;;5027168;28;20034;-71
2023/06/20 04:38:06;;;;;;;11.63;6.20;;;;;;;;;;5018588;28;20029;-71
2023/06/20 04:40:31;;;;;;;9.60;5.70;;;;;;;;;;5017772;28;20083;-71
2023/06/20 04:42:56;;;;;;;12.50;6.68;;;;;;;;;;5028102;28;20022;-71
2023/06/20 04:45:23;;;;;;;10.48;6.43;;;;;;;;;;5020901;28;20038;-71
2023/06/20 04:47:52;;;;;;;9.68;6.32;;;;;;;;;;5026489;28;20045;-71
2023/06/20 04:50:18;;;;;;;9.45;6.30;;;;;;;;;;5013963;28;20033;-71
2023/06/20 04:52:44;;;;;;;10.77;6.25;;;;;;;;;;5026877;28;20025;-71
2023/06/20 04:55:09;;;;;;;12.55;6.22;;;;;;;;;;5023438;28;20039;-71
2023/06/20 04:57:35;;;;;;;8.82;5.95;;;;;;;;;;5025849;28;20042;-71
2023/06/20 05:00:00;;;;;;;8.52;5.60;;;;;;;;;;5024979;28;20049;-71
2023/06/20 05:02:26;;;;;;;9.27;5.82;;;;;;;;;;5025743;28;20037;-71
2023/06/20 05:04:52;;;;;;;9.88;5.80;;;;;;;;;;5026116;28;20041;-71
2023/06/20 05:07:17;;;;;;;9.38;5.70;;;;;;;;;;5026475;28;20033;-70
2023/06/20 05:09:43;;;;;;;9.32;5.72;;;;;;;;;;5025750;28;20024;-71
2023/06/20 05:12:09;;;;;;;8.15;6.28;;;;;;;;;;5026316;28;20037;-71
2023/06/20 05:14:34;;;;;;;9.52;5.85;;;;;;;;;;5026457;28;20040;-71
2023/06/20 05:16:59;;;;;;;10.93;6.10;;;;;;;;;;5026459;28;20037;-71
2023/06/20 05:19:25;;;;;;;8.98;5.50;;;;;;;;;;5026442;28;20025;-71
2023/06/20 05:21:50;;;;;;;9.02;5.25;;;;;;;;;;5026055;28;20025;-71
2023/06/20 05:24:16;;;;;;;9.40;6.10;;;;;;;;;;5029543;28;20100;-71
2023/06/20 05:26:41;;;;;;;8.48;5.65;;;;;;;;;;5035123;28;20049;-71
2023/06/20 05:29:06;;;;;;;10.00;5.72;;;;;;;;;;5030771;28;20042;-71
2023/06/20 05:31:32;;;;;;;9.02;5.30;;;;;;;;;;5025695;28;20079;-71
2023/06/20 05:33:57;;;;;;;8.30;5.55;;;;;;;;;;5025440;28;20029;-71
2023/06/20 05:36:23;;;;;;;9.90;6.35;;;;;;;;;;5025313;28;20518;-70
2023/06/20 05:38:48;;;;;;;11.50;6.30;;;;;;;;;;5025847;28;20190;-71
2023/06/20 05:41:15;;;;;;;9.80;6.03;;;;;;;;;;5026438;28;20048;-71
2023/06/20 05:43:40;;;;;;;8.50;5.80;;;;;;;;;;5022541;28;20092;-71
2023/06/20 05:46:05;;;;;;;9.07;6.28;;;;;;;;;;5025247;28;20507;-71
2023/06/20 05:48:32;;;;;;;11.23;6.45;;;;;;;;;;5025772;28;20045;-71
2023/06/20 05:51:00;;;;;;;8.93;6.18;;;;;;;;;;5015068;28;20033;-71
2023/06/20 05:53:28;;;;;;;8.98;6.07;;;;;;;;;;5023282;28;20045;-71
2023/06/20 05:55:53;;;;;;;10.57;6.32;;;;;;;;;;5025600;28;20088;-71
2023/06/20 05:58:19;;;;;;;12.30;6.45;;;;;;;;;;5025731;28;20041;-71
2023/06/20 06:00:45;;;;;;;15.85;6.28;;;;;;;;;;5026694;28;20063;-71
2023/06/20 06:03:11;;;;;;;11.73;6.03;;;;;;;;;;5024925;28;20037;-71
2023/06/20 06:05:37;;;;;;;8.98;5.80;;;;;;;;;;5025500;28;20045;-71
2023/06/20 06:08:02;;;;;;;9.60;6.10;;;;;;;;;;5025093;28;20030;-71
2023/06/20 06:10:28;;;;;;;8.93;6.03;;;;;;;;;;5025099;28;20455;-71
2023/06/20 06:12:53;;;;;;;10.48;5.72;;;;;;;;;;5020337;28;20099;-71
2023/06/20 06:15:18;;;;;;;8.98;5.55;;;;;;;;;;4994817;28;20037;-71
2023/06/20 06:17:44;;;;;;;11.25;5.53;;;;;;;;;;5005857;28;20030;-71
2023/06/20 06:20:17;;;;;;;9.40;5.65;;;;;;;;;;5012155;28;20037;-71
2023/06/20 06:22:43;;;;;;;8.65;5.25;;;;;;;;;;5003907;28;20034;-71
2023/06/20 06:25:09;;;;;;;9.20;5.55;;;;;;;;;;4993621;28;20098;-71
2023/06/20 06:27:35;;;;;;;10.38;5.20;;;;;;;;;;5011043;28;20455;-71
2023/06/20 06:30:01;;;;;;;9.80;5.57;;;;;;;;;;5013966;28;20037;-71
2023/06/20 06:32:27;;;;;;;9.82;5.20;;;;;;;;;;5021992;28;20044;-70
2023/06/20 06:34:54;;;;;;;7.90;5.43;;;;;;;;;;5026334;28;20044;-71
2023/06/20 06:37:21;;;;;;;10.82;5.90;;;;;;;;;;5025788;28;20081;-71
2023/06/20 06:39:47;;;;;;;7.18;5.40;;;;;;;;;;5026259;28;20053;-71
2023/06/20 06:42:12;;;;;;;7.72;5.68;;;;;;;;;;5017458;28;20060;-70
2023/06/20 06:44:38;;;;;;;8.77;5.50;;;;;;;;;;5025909;28;20080;-71
2023/06/20 06:47:03;;;;;;;10.93;5.25;;;;;;;;;;5025959;28;20051;-71
2023/06/20 06:49:31;;;;;;;12.55;5.90;;;;;;;;;;5027070;28;20451;-71
2023/06/20 06:51:56;;;;;;;9.57;6.43;;;;;;;;;;5030860;28;20029;-71
2023/06/20 06:54:22;;;;;;;12.73;6.60;;;;;;;;;;5038142;28;20121;-71
2023/06/20 06:56:47;;;;;;;9.98;6.05;;;;;;;;;;5019745;28;20029;-71
2023/06/20 06:59:12;;;;;;;9.43;5.80;;;;;;;;;;5033378;28;20120;-71
2023/06/20 07:01:38;;;;;;;9.70;5.72;;;;;;;;;;5025636;28;20036;-71
2023/06/20 07:04:04;;;;;;;12.07;6.20;;;;;;;;;;5023896;28;20053;-71
2023/06/20 07:06:30;;;;;;;10.20;5.47;;;;;;;;;;5024440;28;20459;-71
2023/06/20 07:08:55;;;;;;;8.20;5.78;;;;;;;;;;5023533;28;20416;-71
2023/06/20 07:11:20;;;;;;;9.98;5.03;;;;;;;;;;5010876;28;20033;-70
2023/06/20 07:13:46;;;;;;;7.40;4.97;;;;;;;;;;5021920;28;21814;-71
2023/06/20 07:16:11;;;;;;;7.85;5.05;;;;;;;;;;5025263;28;20108;-71
2023/06/20 07:18:37;;;;;;;9.05;5.70;;;;;;;;;;5026127;28;20013;-71
2023/06/20 07:21:03;;;;;;;8.35;5.55;;;;;;;;;;5024729;28;20037;-71
2023/06/20 07:23:29;;;;;;;7.97;5.22;;;;;;;;;;5016497;28;20091;-71
2023/06/20 07:25:54;;;;;;;9.50;5.20;;;;;;;;;;5009824;28;20045;-71
2023/06/20 07:28:19;;;;;;;9.25;5.20;;;;;;;;;;5016546;28;20038;-71
2023/06/20 07:30:45;;;;;;;8.45;5.10;;;;;;;;;;5009318;28;20044;-71
2023/06/20 07:33:10;;;;;;;10.95;5.80;;;;;;;;;;5024757;28;20124;-71
2023/06/20 07:35:36;;;;;;;9.60;5.82;;;;;;;;;;5024958;28;20040;-71
2023/06/20 07:38:01;;;;;;;8.65;5.68;;;;;;;;;;5024748;28;20036;-70
2023/06/20 07:40:26;;;;;;;10.68;5.80;;;;;;;;;;5024755;28;20025;-71
2023/06/20 07:42:52;;;;;;;6.85;5.15;;;;;;;;;;5025571;28;20029;-71
2023/06/20 07:45:17;;;;;;;7.65;5.10;;;;;;;;;;5022046;28;20033;-70
2023/06/20 07:47:43;;;;;;;6.43;4.72;;;;;;;;;;5013291;28;20040;-71
2023/06/20 07:50:09;;;;;;;7.80;5.00;;;;;;;;;;5024081;28;20469;-71
2023/06/20 07:52:34;;;;;;;7.60;5.15;;;;;;;;;;5023405;28;20033;-70
2023/06/20 07:55:01;;;;;;;6.75;4.85;;;;;;;;;;5025032;28;20832;-71
2023/06/20 07:57:27;;;;;;;9.13;4.68;;;;;;;;;;5018328;28;20023;-71
2023/06/20 07:59:52;;;;;;;7.70;4.55;;;;;;;;;;5011548;28;20034;-70
2023/06/20 08:02:18;;;;;;;8.48;4.90;;;;;;;;;;5009564;28;20041;-70
2023/06/20 08:04:43;;;;;;;6.00;4.40;;;;;;;;;;5016343;28;20813;-72
2023/06/20 08:07:09;;;;;;;9.18;4.20;;;;;;;;;;5011463;28;20235;-71
2023/06/20 08:09:34;;;;;;;8.52;4.93;;;;;;;;;;5010603;28;20088;-71
2023/06/20 08:12:00;;;;;;;6.35;4.38;;;;;;;;;;5021999;28;20041;-71
2023/06/20 08:14:25;;;;;;;6.38;4.38;;;;;;;;;;5025079;28;20030;-71
2023/06/20 08:16:50;;;;;;;7.10;4.22;;;;;;;;;;5021233;28;20068;-71
2023/06/20 08:19:16;;;;;;;5.75;4.20;;;;;;;;;;5028395;28;20025;-71
2023/06/20 08:21:41;;;;;;;6.20;4.25;;;;;;;;;;5026340;28;20059;-71
2023/06/20 08:24:06;;;;;;;7.07;4.32;;;;;;;;;;5017586;28;20040;-71
2023/06/20 08:26:32;;;;;;;8.00;4.40;;;;;;;;;;5024174;28;20128;-71
2023/06/20 08:28:57;;;;;;;6.75;4.35;;;;;;;;;;5023535;28;20446;-71
2023/06/20 08:31:23;;;;;;;5.68;4.25;;;;;;;;;;5023026;28;20419;-71
2023/06/20 08:33:48;;;;;;;11.00;4.80;;;;;;;;;;5014522;28;20653;-71
2023/06/20 08:36:13;;;;;;;5.07;3.60;;;;;;;;;;5023237;28;20037;-71
2023/06/20 08:38:39;;;;;;;10.73;4.05;;;;;;;;;;5028267;28;20034;-71
2023/06/20 08:41:09;;;;;;;7.22;4.07;;;;;;;;;;5026858;28;20068;-71
2023/06/20 08:43:34;;;;;;;11.35;4.03;;;;;;;;;;5027512;28;20045;-71
2023/06/20 08:46:00;;;;;;;5.20;4.07;;;;;;;;;;5026429;28;20032;-71
2023/06/20 08:48:26;;;;;;;5.75;4.28;;;;;;;;;;5024231;28;20056;-71
2023/06/20 08:50:52;;;;;;;11.10;4.07;;;;;;;;;;5014230;28;20549;-71
2023/06/20 08:53:18;;;;;;;7.55;4.00;;;;;;;;;;5020261;28;20033;-72
2023/06/20 08:55:45;;;;;;;4.88;3.70;;;;;;;;;;5028101;28;20545;-71
2023/06/20 08:58:11;;;;;;;5.65;3.72;;;;;;;;;;5026648;28;20056;-71
2023/06/20 09:00:40;;;;;;;5.72;3.90;;;;;;;;;;5027027;28;20520;-72
2023/06/20 09:03:05;;;;;;;4.40;3.70;;;;;;;;;;5024771;28;20037;-72
2023/06/20 09:05:32;;;;;;;5.15;3.55;;;;;;;;;;5026794;28;20045;-72
2023/06/20 09:07:57;;;;;;;4.10;3.45;;;;;;;;;;5021262;28;20792;-72
2023/06/20 09:10:24;;;;;;;10.77;3.67;;;;;;;;;;5026183;28;20030;-72
2023/06/20 09:12:56;;;;;;;6.13;3.28;;;;;;;;;;5027048;28;20537;-72
2023/06/20 09:15:23;;;;;;;5.32;3.83;;;;;;;;;;5020555;28;20045;-71
2023/06/20 09:17:56;;;;;;;6.32;3.65;;;;;;;;;;5019616;28;20048;-72
2023/06/20 09:20:25;;;;;;;;;;;;;;;;;;5026212;28;20129;-72
2023/06/20 09:22:51;;;;;;;4.90;3.55;;;;;;;;;;5020910;28;19916;-71
2023/06/20 09:25:21;;;;;;;4.57;3.38;;;;;;;;;;5025283;28;20021;-72
2023/06/20 09:27:47;;;;;;;6.18;3.70;;;;;;;;;;5027146;28;20828;-72
2023/06/20 09:30:12;;;;;;;5.78;3.50;;;;;;;;;;5026975;28;20030;-71
2023/06/20 09:32:40;;;;;;;6.00;3.65;;;;;;;;;;5020690;28;20041;-71
2023/06/20 09:35:11;;;;;;;4.65;3.72;;;;;;;;;;5023206;28;20037;-71
2023/06/20 09:37:37;;;;;;;5.13;3.35;;;;;;;;;;5026294;28;20519;-71
2023/06/20 09:40:10;;;;;;;4.60;3.40;;;;;;;;;;5026787;28;20218;-71
2023/06/20 09:42:36;;;;;;;;;;;;;;;;;;5024097;28;20021;-71
2023/06/20 09:45:02;;;;;;;7.13;3.42;;;;;;;;;;5018731;28;19921;-71
2023/06/20 09:47:29;;;;;;;3.97;3.15;;;;;;;;;;5018492;28;20048;-71
2023/06/20 09:49:58;;;;;;;5.20;3.35;;;;;;;;;;5034700;28;20136;-72
2023/06/20 09:52:32;;;;;;;4.22;3.40;;;;;;;;;;5027921;28;20057;-71
2023/06/20 09:55:02;;;;;;;6.65;3.28;;;;;;;;;;5016997;28;20057;-71
2023/06/20 09:57:40;;;;;;;6.43;3.90;;;;;;;;;;5027218;28;20060;-71
2023/06/20 10:00:12;;;;;;;4.78;4.30;;;;;;;;;;5018527;28;20065;-71
2023/06/20 10:02:41;;;;;;;4.60;3.30;;;;;;;;;;5025831;28;20034;-71
2023/06/20 10:05:09;;;;;;;4.68;3.72;;;;;;;;;;5025527;28;20052;-71
2023/06/20 10:07:37;;;;;;;4.85;3.70;;;;;;;;;;5024801;28;20045;-71
2023/06/20 10:10:03;;;;;;;5.43;4.00;;;;;;;;;;5025074;28;20023;-71
2023/06/20 10:12:29;;;;;;;5.65;3.30;;;;;;;;;;5025859;28;20041;-71
2023/06/20 10:14:55;;;;;;;5.25;3.97;;;;;;;;;;5024887;28;20126;-71
2023/06/20 10:17:32;;;;;;;5.32;3.92;;;;;;;;;;5018884;28;20041;-71
2023/06/20 10:19:59;;;;;;;5.35;3.90;;;;;;;;;;5012470;28;20155;-72
2023/06/20 10:22:38;;;;;;;4.18;3.58;;;;;;;;;;5018869;28;20033;-71
2023/06/20 10:25:11;;;;;;;8.32;3.85;;;;;;;;;;5021013;28;20026;-71
2023/06/20 10:27:41;;;;;;;5.93;4.10;;;;;;;;;;5015612;28;20037;-72
2023/06/20 10:30:08;;;;;;;4.78;3.90;;;;;;;;;;5025463;28;20757;-71
2023/06/20 10:32:34;;;;;;;6.85;4.30;;;;;;;;;;5023488;28;20053;-70
2023/06/20 10:35:09;;;;;;;5.93;4.25;;;;;;;;;;5025331;28;20063;-71
2023/06/20 10:37:36;;;;;;;8.98;4.00;;;;;;;;;;5011853;28;20037;-71
2023/06/20 10:40:04;;;;;;;5.80;4.25;;;;;;;;;;5016899;28;20615;-71
2023/06/20 10:42:43;;;;;;;4.72;4.00;;;;;;;;;;5024522;28;20017;-71
2023/06/20 10:45:25;;;;;;;5.85;3.90;;;;;;;;;;5025609;28;20534;-71
2023/06/20 10:47:52;;;;;;;6.20;4.40;;;;;;;;;;5024948;28;20049;-71
2023/06/20 10:50:17;;;;;;;6.35;4.63;;;;;;;;;;5013431;28;20164;-71
2023/06/20 10:52:43;;;;;;;6.05;4.32;;;;;;;;;;5027875;28;20124;-71
2023/06/20 10:55:13;;;;;;;5.15;4.38;;;;;;;;;;5025707;28;20577;-71
2023/06/20 10:57:46;;;;;;;5.80;4.20;;;;;;;;;;5024617;28;20029;-71
2023/06/20 11:00:18;;;;;;;6.30;4.60;;;;;;;;;;5013964;28;20036;-70
2023/06/20 11:02:48;;;;;;;6.65;4.53;;;;;;;;;;5025276;28;20026;-71
2023/06/20 11:05:14;;;;;;;6.25;4.22;;;;;;;;;;5024704;28;20052;-71
2023/06/20 11:08:09;;;;;;;5.68;4.60;;;;;;;;;;5025470;28;20029;-71
2023/06/20 11:10:36;;;;;;;6.88;4.25;;;;;;;;;;5024569;28;20038;-72
2023/06/20 11:13:04;;;;;;;4.72;4.22;;;;;;;;;;5027903;28;20047;-71
2023/06/20 11:15:34;;;;;;;4.32;3.92;;;;;;;;;;5029449;28;20021;-70
2023/06/20 11:18:02;;;;;;;5.40;4.25;;;;;;;;;;5022722;28;20068;-71
2023/06/20 11:20:27;;;;;;;11.57;5.35;;;;;;;;;;5021331;28;20029;-71
2023/06/20 11:22:57;;;;;;;5.30;4.10;;;;;;;;;;5024421;28;20033;-71
2023/06/20 11:25:28;;;;;;;11.95;4.90;;;;;;;;;;5022788;28;20045;-71
2023/06/20 11:27:53;;;;;;;5.13;4.00;;;;;;;;;;5018600;28;20037;-71
2023/06/20 11:30:27;;;;;;;8.50;4.18;;;;;;;;;;5016536;28;20034;-70
2023/06/20 11:33:05;;;;;;;6.00;4.30;;;;;;;;;;5018935;28;20053;-70
2023/06/20 11:35:44;;;;;;;6.85;3.95;;;;;;;;;;5008265;28;20045;-70
2023/06/20 11:38:13;;;;;;;4.45;4.00;;;;;;;;;;4993263;28;20124;-70
2023/06/20 11:40:39;;;;;;;5.90;4.20;;;;;;;;;;5020888;28;20052;-71
2023/06/20 11:43:04;;;;;;;5.78;4.28;;;;;;;;;;5013048;28;20033;-70
2023/06/20 11:45:30;;;;;;;5.40;3.83;;;;;;;;;;5019867;28;20503;-70
2023/06/20 11:48:08;;;;;;;6.03;4.25;;;;;;;;;;5025085;28;20128;-70
2023/06/20 11:50:34;;;;;;;8.10;3.85;;;;;;;;;;5025181;28;20080;-70
2023/06/20 11:53:01;;;;;;;4.30;3.80;;;;;;;;;;5023721;28;20065;-70
2023/06/20 11:55:46;;;;;;;4.38;3.97;;;;;;;;;;5025521;28;20049;-70
2023/06/20 11:58:12;;;;;;;5.13;3.95;;;;;;;;;;5024278;28;20036;-70
2023/06/20 12:00:37;;;;;;;6.38;3.63;;;;;;;;;;5025978;28;20096;-70
2023/06/20 12:03:09;;;;;;;8.45;4.03;;;;;;;;;;5025044;28;20069;-70
2023/06/20 12:05:35;;;;;;;6.47;3.50;;;;;;;;;;5025007;28;20045;-70
2023/06/20 12:08:00;;;;;;;3.83;3.45;;;;;;;;;;5025383;28;20048;-70
2023/06/20 12:10:28;;;;;;;6.10;4.05;;;;;;;;;;5024417;28;20033;-70
2023/06/20 12:12:53;;;;;;;5.95;3.80;;;;;;;;;;5025622;28;20053;-70
2023/06/20 12:15:19;;;;;;;4.95;3.92;;;;;;;;;;5029063;28;20452;-70
2023/06/20 12:17:44;;;;;;;5.53;4.20;;;;;;;;;;5029408;28;20060;-70
2023/06/20 12:20:10;;;;;;;6.35;4.15;;;;;;;;;;5028865;28;20048;-70
2023/06/20 12:22:35;;;;;;;6.03;3.80;;;;;;;;;;5028517;28;20140;-70
2023/06/20 12:25:01;;;;;;;6.38;4.18;;;;;;;;;;5029147;28;20150;-69
2023/06/20 12:27:27;;;;;;;4.82;3.80;;;;;;;;;;5028785;28;20101;-70
2023/06/20 12:29:52;;;;;;;4.75;3.83;;;;;;;;;;5028789;28;20120;-70
2023/06/20 12:32:17;;;;;;;6.05;4.30;;;;;;;;;;5026790;28;20071;-70
2023/06/20 12:34:42;;;;;;;5.20;4.20;;;;;;;;;;5028619;28;20061;-69
2023/06/20 12:37:08;;;;;;;6.93;4.32;;;;;;;;;;5027311;28;20116;-70
2023/06/20 12:39:34;;;;;;;6.03;4.00;;;;;;;;;;5029443;28;20021;-72
2023/06/20 12:41:59;;;;;;;4.80;4.30;;;;;;;;;;5024765;28;20083;-70
2023/06/20 12:44:26;;;;;;;6.40;4.10;;;;;;;;;;5027181;28;20037;-70
2023/06/20 12:46:52;;;;;;;6.10;4.18;;;;;;;;;;5031939;28;20095;-70
2023/06/20 12:49:18;;;;;;;6.60;4.40;;;;;;;;;;5029474;28;20026;-70
2023/06/20 12:51:44;;;;;;;5.00;4.28;;;;;;;;;;5025670;28;20048;-72
2023/06/20 12:54:10;;;;;;;4.30;3.90;;;;;;;;;;5019083;28;20041;-69
2023/06/20 12:56:35;;;;;;;6.72;4.40;;;;;;;;;;5021305;28;20075;-70
2023/06/20 12:59:04;;;;;;;4.60;3.83;;;;;;;;;;5020402;28;20061;-69
2023/06/20 13:01:30;;;;;;;5.45;4.30;;;;;;;;;;5015491;28;20515;-70
2023/06/20 13:03:56;;;;;;;4.72;4.22;;;;;;;;;;5019769;28;20045;-71
2023/06/20 13:06:21;;;;;;;6.00;4.35;;;;;;;;;;5034580;28;20039;-70
2023/06/20 13:08:47;;;;;;;4.90;4.35;;;;;;;;;;5013732;28;20042;-69
2023/06/20 13:11:14;;;;;;;6.97;4.30;;;;;;;;;;5027596;28;20037;-70
2023/06/20 13:13:39;;;;;;;6.68;4.45;;;;;;;;;;5027967;28;20095;-70
2023/06/20 13:16:05;;;;;;;6.68;4.47;;;;;;;;;;5038471;28;20029;-70
2023/06/20 13:18:30;;;;;;;7.03;4.70;;;;;;;;;;5022106;28;20025;-70
2023/06/20 13:20:56;;;;;;;6.38;4.75;;;;;;;;;;5015265;28;20533;-70
2023/06/20 13:23:21;;;;;;;7.13;4.47;;;;;;;;;;5022009;28;20511;-70
2023/06/20 13:25:47;;;;;;;6.75;4.82;;;;;;;;;;5027041;28;20045;-70
2023/06/20 13:28:13;;;;;;;8.35;5.28;;;;;;;;;;5028075;28;20023;-71
2023/06/20 13:30:38;;;;;;;5.75;5.20;;;;;;;;;;5027478;28;20036;-70
2023/06/20 13:33:04;;;;;;;6.50;4.63;;;;;;;;;;5033754;28;20443;-69
2023/06/20 13:35:29;;;;;;;7.53;5.03;;;;;;;;;;5030101;28;20037;-71
2023/06/20 13:37:54;;;;;;;5.43;4.47;;;;;;;;;;5025746;28;20037;-70
2023/06/20 13:40:22;;;;;;;6.85;4.97;;;;;;;;;;5025873;28;20604;-70
2023/06/20 13:42:48;;;;;;;6.93;5.30;;;;;;;;;;5026866;28;20059;-70
2023/06/20 13:45:18;;;;;;;7.07;4.82;;;;;;;;;;5025860;28;20179;-70
2023/06/20 13:47:45;;;;;;;8.02;5.28;;;;;;;;;;5026217;28;20025;-70
2023/06/20 13:50:11;;;;;;;5.88;5.05;;;;;;;;;;5018349;28;20042;-70
2023/06/20 13:52:37;;;;;;;6.45;4.82;;;;;;;;;;5026236;28;20565;-70
2023/06/20 13:55:03;;;;;;;7.38;5.15;;;;;;;;;;5021270;28;20045;-70
2023/06/20 13:57:28;;;;;;;8.35;5.28;;;;;;;;;;5023756;28;20116;-70
2023/06/20 13:59:54;;;;;;;6.40;4.90;;;;;;;;;;5025643;28;20124;-70
2023/06/20 14:02:19;;;;;;;5.40;4.72;;;;;;;;;;5018776;28;20124;-70
2023/06/20 14:04:45;;;;;;;6.05;5.10;;;;;;;;;;5008016;28;20084;-69
2023/06/20 14:07:11;;;;;;;5.47;4.63;;;;;;;;;;5016072;28;20033;-70
2023/06/20 14:09:36;;;;;;;7.22;5.40;;;;;;;;;;5023443;28;20077;-70
2023/06/20 14:12:02;;;;;;;7.68;4.97;;;;;;;;;;5024977;28;20049;-70
2023/06/20 14:14:28;;;;;;;6.68;4.82;;;;;;;;;;5031168;28;20033;-70
2023/06/20 14:16:57;;;;;;;7.25;5.20;;;;;;;;;;5020246;28;20130;-70
2023/06/20 14:19:22;;;;;;;6.45;4.90;;;;;;;;;;5021260;28;20072;-69
2023/06/20 14:21:48;;;;;;;5.93;5.20;;;;;;;;;;5021600;28;20128;-69
2023/06/20 14:24:13;;;;;;;11.77;5.35;;;;;;;;;;5022456;28;20042;-70
2023/06/20 14:26:41;;;;;;;9.00;4.95;;;;;;;;;;5017315;28;20049;-70
2023/06/20 14:29:07;;;;;;;6.55;5.20;;;;;;;;;;5019974;28;20037;-71
2023/06/20 14:31:33;;;;;;;4.85;4.10;;;;;;;;;;5020674;28;20434;-70
2023/06/20 14:33:58;;;;;;;6.43;3.92;;;;;;;;;;5015971;28;20029;-70
2023/06/20 14:36:28;;;;;;;8.23;4.43;;;;;;;;;;5022348;28;20482;-70
2023/06/20 14:38:53;;;;;;;5.25;3.90;;;;;;;;;;5019718;28;20043;-70
2023/06/20 14:41:19;;;;;;;5.20;4.40;;;;;;;;;;5016927;28;20810;-70